createdAt,value
2018-07-04T00:00:42.563Z,65.50
2018-07-04T00:01:42.565Z,65.69
2018-07-04T00:03:35.545Z,66.17
2018-07-04T00:04:35.536Z,65.59
2018-07-04T00:06:28.476Z,65.30
2018-07-04T00:07:28.480Z,65.69
2018-07-04T00:09:21.410Z,65.30
2018-07-04T00:10:21.420Z,65.59
2018-07-04T00:12:14.356Z,65.59
2018-07-04T00:13:14.363Z,65.50
2018-07-04T00:15:07.269Z,65.30
2018-07-04T00:16:07.309Z,65.50
2018-07-04T00:18:00.224Z,65.30
2018-07-04T00:19:00.226Z,65.78
2018-07-04T00:20:53.165Z,66.04
2018-07-04T00:21:53.163Z,65.59
2018-07-04T00:23:46.144Z,66.07
2018-07-04T00:24:46.099Z,65.78
2018-07-04T00:26:39.359Z,65.40
2018-07-04T00:27:39.292Z,65.37
2018-07-04T00:29:32.204Z,65.59
2018-07-04T00:30:32.229Z,65.84
2018-07-04T00:32:25.159Z,65.75
2018-07-04T00:33:25.164Z,66.04
2018-07-04T00:35:18.403Z,65.66
2018-07-04T00:36:18.357Z,65.66
2018-07-04T00:38:11.291Z,66.71
2018-07-04T00:39:11.721Z,66.04
2018-07-04T00:41:04.234Z,65.84
2018-07-04T00:42:04.238Z,65.75
2018-07-04T00:43:57.147Z,65.94
2018-07-04T00:44:57.167Z,65.75
2018-07-04T00:46:50.605Z,65.84
2018-07-04T00:47:50.609Z,65.66
2018-07-04T00:49:43.520Z,65.84
2018-07-04T00:50:43.542Z,65.75
2018-07-04T00:52:36.485Z,66.23
2018-07-04T00:53:36.486Z,66.81
2018-07-04T00:55:29.395Z,66.81
2018-07-04T00:56:29.418Z,66.91
2018-07-04T00:58:22.351Z,66.81
2018-07-04T00:59:22.354Z,66.81
2018-07-04T01:01:15.303Z,66.91
2018-07-04T01:02:15.298Z,66.61
2018-07-04T01:04:08.204Z,66.58
2018-07-04T01:05:08.229Z,66.68
2018-07-04T01:07:01.188Z,66.97
2018-07-04T01:08:01.160Z,66.87
2018-07-04T01:09:55.276Z,67.25
2018-07-04T01:10:54.105Z,67.07
2018-07-04T01:12:47.043Z,67.16
2018-07-04T01:13:47.044Z,67.35
2018-07-04T01:15:41.040Z,67.45
2018-07-04T01:16:41.049Z,67.93
2018-07-04T01:18:33.979Z,68.02
2018-07-04T01:19:33.982Z,67.90
2018-07-04T01:21:26.943Z,68.18
2018-07-04T01:22:26.924Z,67.61
2018-07-04T01:24:19.849Z,67.80
2018-07-04T01:25:19.851Z,67.90
2018-07-04T01:27:13.022Z,67.99
2018-07-04T01:28:13.004Z,67.61
2018-07-04T01:30:06.111Z,67.61
2018-07-04T01:31:06.134Z,67.99
2018-07-04T01:32:59.067Z,67.80
2018-07-04T01:33:59.067Z,67.70
2018-07-04T01:35:51.982Z,67.80
2018-07-04T01:36:52.004Z,67.80
2018-07-04T01:38:45.144Z,67.61
2018-07-04T01:39:45.130Z,67.80
2018-07-04T01:41:40.519Z,68.37
2018-07-04T01:42:40.548Z,68.34
2018-07-04T01:44:33.474Z,68.91
2018-07-04T01:45:33.475Z,69.30
2018-07-04T01:47:26.410Z,69.78
2018-07-04T01:48:26.405Z,70.26
2018-07-04T01:50:19.316Z,70.45
2018-07-04T01:51:19.339Z,70.55
2018-07-04T01:53:12.273Z,70.26
2018-07-04T01:54:12.273Z,70.45
2018-07-04T01:56:05.184Z,70.17
2018-07-04T01:57:05.206Z,70.13
2018-07-04T01:58:58.137Z,70.36
2018-07-04T01:59:58.146Z,70.42
2018-07-04T02:01:51.050Z,70.90
2018-07-04T02:02:51.080Z,71.09
2018-07-04T02:04:44.005Z,71.76
2018-07-04T02:05:44.003Z,71.47
2018-07-04T02:07:37.007Z,71.28
2018-07-04T02:08:36.934Z,71.37
2018-07-04T02:10:29.915Z,71.47
2018-07-04T02:11:29.889Z,71.37
2018-07-04T02:13:22.824Z,71.28
2018-07-04T02:14:22.834Z,71.37
2018-07-04T02:16:15.740Z,71.28
2018-07-04T02:17:15.763Z,71.37
2018-07-04T02:19:08.696Z,70.99
2018-07-04T02:20:08.696Z,70.80
2018-07-04T02:22:01.603Z,71.28
2018-07-04T02:23:01.629Z,71.37
2018-07-04T02:24:54.627Z,70.90
2018-07-04T02:25:54.560Z,70.99
2018-07-04T02:27:47.468Z,70.70
2018-07-04T02:28:47.490Z,70.70
2018-07-04T02:30:40.562Z,70.80
2018-07-04T02:31:40.564Z,71.28
2018-07-04T02:33:33.498Z,70.99
2018-07-04T02:34:34.029Z,71.19
2018-07-04T02:36:26.408Z,71.28
2018-07-04T02:37:26.503Z,70.99
2018-07-04T02:39:19.365Z,70.99
2018-07-04T02:40:19.360Z,70.61
2018-07-04T02:42:12.270Z,70.32
2018-07-04T02:43:12.292Z,70.42
2018-07-04T02:45:05.321Z,69.93
2018-07-04T02:46:05.226Z,69.93
2018-07-04T02:47:58.146Z,69.93
2018-07-04T02:48:58.161Z,70.42
2018-07-04T02:50:51.096Z,70.13
2018-07-04T02:51:51.094Z,70.51
2018-07-04T02:53:44.025Z,70.13
2018-07-04T02:54:44.033Z,70.13
2018-07-04T02:56:36.935Z,70.13
2018-07-04T02:57:36.956Z,69.62
2018-07-04T02:59:29.893Z,69.74
2018-07-04T03:00:29.893Z,69.81
2018-07-04T03:02:22.809Z,69.84
2018-07-04T03:03:22.836Z,69.65
2018-07-04T03:05:15.904Z,69.26
2018-07-04T03:06:15.905Z,69.36
2018-07-04T03:08:08.822Z,69.56
2018-07-04T03:09:08.848Z,69.65
2018-07-04T03:11:01.776Z,70.03
2018-07-04T03:12:01.777Z,69.84
2018-07-04T03:13:54.686Z,69.65
2018-07-04T03:14:54.710Z,70.13
2018-07-04T03:16:47.639Z,69.56
2018-07-04T03:17:47.650Z,69.93
2018-07-04T03:19:40.572Z,69.56
2018-07-04T03:20:40.572Z,69.93
2018-07-04T03:22:33.487Z,69.84
2018-07-04T03:23:33.508Z,69.84
2018-07-04T03:25:26.447Z,69.65
2018-07-04T03:26:26.442Z,69.74
2018-07-04T03:28:19.346Z,69.36
2018-07-04T03:29:19.367Z,69.36
2018-07-04T03:31:12.301Z,69.74
2018-07-04T03:32:12.301Z,69.84
2018-07-04T03:34:05.212Z,69.07
2018-07-04T03:35:05.230Z,69.56
2018-07-04T03:36:58.165Z,69.56
2018-07-04T03:37:58.174Z,69.46
2018-07-04T03:39:51.112Z,69.56
2018-07-04T03:40:51.106Z,68.79
2018-07-04T03:42:44.014Z,68.59
2018-07-04T03:43:44.034Z,68.30
2018-07-04T03:45:36.968Z,68.40
2018-07-04T03:46:36.968Z,68.40
2018-07-04T03:48:29.875Z,67.67
2018-07-04T03:49:29.897Z,67.76
2018-07-04T03:51:22.962Z,67.41
2018-07-04T03:52:22.965Z,66.93
2018-07-04T03:54:15.875Z,65.46
2018-07-04T03:55:15.898Z,64.31
2018-07-04T03:57:08.829Z,62.35
2018-07-04T03:58:08.857Z,61.87
2018-07-04T04:00:01.747Z,60.46
2018-07-04T04:01:01.764Z,59.62
2018-07-04T04:02:54.695Z,59.27
2018-07-04T04:03:54.700Z,58.40
2018-07-04T04:05:47.649Z,56.24
2018-07-04T04:06:47.643Z,55.08
2018-07-04T04:08:40.551Z,53.75
2018-07-04T04:09:40.577Z,54.05
2018-07-04T04:11:33.514Z,53.59
2018-07-04T04:12:33.522Z,52.23
2018-07-04T04:14:26.438Z,52.53
2018-07-04T04:15:26.469Z,52.53
2018-07-04T04:17:19.403Z,51.85
2018-07-04T04:18:19.410Z,51.10
2018-07-04T04:20:12.325Z,50.52
2018-07-04T04:21:12.355Z,50.26
2018-07-04T04:23:05.288Z,49.58
2018-07-04T04:24:05.295Z,49.29
2018-07-04T04:25:58.209Z,49.49
2018-07-04T04:26:58.271Z,49.68
2018-07-04T04:28:51.186Z,49.29
2018-07-04T04:29:51.184Z,49.29
2018-07-04T04:31:44.127Z,48.81
2018-07-04T04:32:44.135Z,48.54
2018-07-04T04:34:37.055Z,48.93
2018-07-04T04:35:37.081Z,48.71
2018-07-04T04:37:30.023Z,49.00
2018-07-04T04:38:30.029Z,49.46
2018-07-04T04:40:22.949Z,50.04
2018-07-04T04:41:22.977Z,49.77
2018-07-04T04:43:15.922Z,49.39
2018-07-04T04:44:15.923Z,49.29
2018-07-04T04:46:08.845Z,48.90
2018-07-04T04:47:08.872Z,49.39
2018-07-04T04:49:01.955Z,49.29
2018-07-04T04:50:01.959Z,49.58
2018-07-04T04:51:54.877Z,49.29
2018-07-04T04:52:54.905Z,49.58
2018-07-04T04:54:47.854Z,49.02
2018-07-04T04:55:47.855Z,48.64
2018-07-04T04:57:40.790Z,47.50
2018-07-04T04:58:40.799Z,46.92
2018-07-04T05:00:33.725Z,46.75
2018-07-04T05:01:33.747Z,45.81
2018-07-04T05:03:26.698Z,44.86
2018-07-04T05:04:26.710Z,44.67
2018-07-04T05:06:19.627Z,44.30
2018-07-04T05:07:19.655Z,43.82
2018-07-04T05:09:12.599Z,42.96
2018-07-04T05:10:12.607Z,42.60
2018-07-04T05:12:05.540Z,41.84
2018-07-04T05:13:05.562Z,42.03
2018-07-04T05:14:58.504Z,40.79
2018-07-04T05:15:58.514Z,40.21
2018-07-04T05:17:51.470Z,40.01
2018-07-04T05:18:51.469Z,40.03
2018-07-04T05:20:44.397Z,40.72
2018-07-04T05:21:44.426Z,40.42
2018-07-04T05:23:37.377Z,40.89
2018-07-04T05:24:37.383Z,41.47
2018-07-04T05:26:30.308Z,40.58
2018-07-04T05:27:30.336Z,40.50
2018-07-04T05:29:23.283Z,40.21
2018-07-04T05:30:23.294Z,40.41
2018-07-04T05:32:16.813Z,40.50
2018-07-04T05:33:16.250Z,40.52
2018-07-04T05:35:09.202Z,40.62
2018-07-04T05:36:09.202Z,39.94
2018-07-04T05:38:02.162Z,39.47
2018-07-04T05:39:02.161Z,39.26
2018-07-04T05:40:55.093Z,39.76
2018-07-04T05:41:55.117Z,39.67
2018-07-04T05:43:48.069Z,39.75
2018-07-04T05:44:48.075Z,39.37
2018-07-04T05:46:41.012Z,40.21
2018-07-04T05:47:41.117Z,40.39
2018-07-04T05:49:34.045Z,41.45
2018-07-04T05:50:34.001Z,41.36
2018-07-04T05:52:26.927Z,41.94
2018-07-04T05:53:26.956Z,41.72
2018-07-04T05:55:19.911Z,42.89
2018-07-04T05:56:19.959Z,43.27
2018-07-04T05:58:12.877Z,43.08
2018-07-04T05:59:12.874Z,42.86
2018-07-04T06:01:05.799Z,43.43
2018-07-04T06:02:05.830Z,43.91
2018-07-04T06:03:58.840Z,44.57
2018-07-04T06:04:58.784Z,45.13
2018-07-04T06:06:51.710Z,45.73
2018-07-04T06:07:51.739Z,45.83
2018-07-04T06:09:44.687Z,44.68
2018-07-04T06:10:44.696Z,44.59
2018-07-04T06:12:37.624Z,44.42
2018-07-04T06:13:37.650Z,43.76
2018-07-04T06:15:30.599Z,42.89
2018-07-04T06:16:30.611Z,42.69
2018-07-04T06:18:23.536Z,42.69
2018-07-04T06:19:23.568Z,42.40
2018-07-04T06:21:16.519Z,42.60
2018-07-04T06:22:16.528Z,42.79
2018-07-04T06:24:09.478Z,42.43
2018-07-04T06:25:09.487Z,42.50
2018-07-04T06:27:02.410Z,42.71
2018-07-04T06:28:02.442Z,42.74
2018-07-04T06:29:55.393Z,40.89
2018-07-04T06:30:55.405Z,41.49
2018-07-04T06:32:48.337Z,40.25
2018-07-04T06:33:48.371Z,39.67
2018-07-04T06:35:42.320Z,39.59
2018-07-04T06:36:42.333Z,39.29
2018-07-04T06:38:35.262Z,39.00
2018-07-04T06:39:35.297Z,38.91
2018-07-04T06:41:28.252Z,38.34
2018-07-04T06:42:28.262Z,38.54
2018-07-04T06:44:21.192Z,37.19
2018-07-04T06:45:21.225Z,36.90
2018-07-04T06:47:14.187Z,37.27
2018-07-04T06:48:14.200Z,37.46
2018-07-04T06:50:07.157Z,37.76
2018-07-04T06:51:07.169Z,37.37
2018-07-04T06:53:00.114Z,38.32
2018-07-04T06:54:00.212Z,38.52
2018-07-04T06:55:53.095Z,38.91
2018-07-04T06:56:53.103Z,39.29
2018-07-04T06:58:46.035Z,39.10
2018-07-04T06:59:46.071Z,39.67
2018-07-04T07:01:39.031Z,39.39
2018-07-04T07:02:39.042Z,39.57
2018-07-04T07:04:31.973Z,39.00
2018-07-04T07:05:32.007Z,39.20
2018-07-04T07:07:24.965Z,39.78
2018-07-04T07:08:25.045Z,39.10
2018-07-04T07:10:17.945Z,38.62
2018-07-04T07:11:17.945Z,38.64
2018-07-04T07:13:10.880Z,38.24
2018-07-04T07:14:10.923Z,38.26
2018-07-04T07:16:03.874Z,38.65
2018-07-04T07:17:03.886Z,38.38
2018-07-04T07:18:56.820Z,37.60
2018-07-04T07:19:56.855Z,37.33
2018-07-04T07:21:49.814Z,37.04
2018-07-04T07:22:49.829Z,36.33
2018-07-04T07:24:42.765Z,37.70
2018-07-04T07:25:42.802Z,37.70
2018-07-04T07:27:35.814Z,38.38
2018-07-04T07:28:35.770Z,37.70
2018-07-04T07:30:28.740Z,37.41
2018-07-04T07:31:28.743Z,37.91
2018-07-04T07:33:22.175Z,37.41
2018-07-04T07:34:22.352Z,37.79
2018-07-04T07:36:15.163Z,38.44
2018-07-04T07:37:15.173Z,38.81
2018-07-04T07:39:08.266Z,39.76
2018-07-04T07:40:08.301Z,39.78
2018-07-04T07:42:01.296Z,40.56
2018-07-04T07:43:01.264Z,40.17
2018-07-04T07:44:54.191Z,39.39
2018-07-04T07:45:54.225Z,39.29
2018-07-04T07:47:47.178Z,39.59
2018-07-04T07:48:47.211Z,38.62
2018-07-04T07:50:40.113Z,38.31
2018-07-04T07:51:40.142Z,38.52
2018-07-04T07:53:33.098Z,37.35
2018-07-04T07:54:33.102Z,37.54
2018-07-04T07:56:26.049Z,38.05
2018-07-04T07:57:26.058Z,38.15
2018-07-04T07:59:18.986Z,37.95
2018-07-04T08:00:19.016Z,37.95
2018-07-04T08:02:11.963Z,38.32
2018-07-04T08:03:11.974Z,38.23
2018-07-04T08:05:04.909Z,39.39
2018-07-04T08:06:04.937Z,39.29
2018-07-04T08:07:57.892Z,39.00
2018-07-04T08:08:57.897Z,38.23
2018-07-04T08:10:50.828Z,38.50
2018-07-04T08:11:50.857Z,38.60
2018-07-04T08:13:44.797Z,38.52
2018-07-04T08:14:44.809Z,38.13
2018-07-04T08:16:37.736Z,38.23
2018-07-04T08:17:37.771Z,37.76
2018-07-04T08:19:30.718Z,36.59
2018-07-04T08:20:30.726Z,36.30
2018-07-04T08:22:23.679Z,36.61
2018-07-04T08:23:23.684Z,36.59
2018-07-04T08:25:16.615Z,37.76
2018-07-04T08:26:16.716Z,36.10
2018-07-04T08:28:09.599Z,36.12
2018-07-04T08:29:09.605Z,35.52
2018-07-04T08:31:02.535Z,36.49
2018-07-04T08:32:02.565Z,36.59
2018-07-04T08:33:55.517Z,36.61
2018-07-04T08:34:55.523Z,36.12
2018-07-04T08:36:48.455Z,36.80
2018-07-04T08:37:48.483Z,35.93
2018-07-04T08:39:41.440Z,35.93
2018-07-04T08:40:41.449Z,35.65
2018-07-04T08:42:34.393Z,35.65
2018-07-04T08:43:34.402Z,35.85
2018-07-04T08:45:27.333Z,36.43
2018-07-04T08:46:27.363Z,36.72
2018-07-04T08:48:20.312Z,36.53
2018-07-04T08:49:20.324Z,36.33
2018-07-04T08:51:13.557Z,38.09
2018-07-04T08:52:13.591Z,38.77
2018-07-04T08:54:06.533Z,38.87
2018-07-04T08:55:06.545Z,38.77
2018-07-04T08:56:59.474Z,38.18
2018-07-04T08:57:59.506Z,38.57
2018-07-04T08:59:52.458Z,37.50
2018-07-04T09:00:52.464Z,37.89
2018-07-04T09:02:45.393Z,38.17
2018-07-04T09:03:45.421Z,38.36
2018-07-04T09:05:38.395Z,37.97
2018-07-04T09:06:38.381Z,37.68
2018-07-04T09:08:31.328Z,37.21
2018-07-04T09:09:31.336Z,37.21
2018-07-04T09:11:24.264Z,38.26
2018-07-04T09:12:24.294Z,38.36
2018-07-04T09:14:17.238Z,38.46
2018-07-04T09:15:17.248Z,38.26
2018-07-04T09:17:10.222Z,37.21
2018-07-04T09:18:10.207Z,36.43
2018-07-04T09:20:03.157Z,36.04
2018-07-04T09:21:03.179Z,36.24
2018-07-04T09:22:56.091Z,36.43
2018-07-04T09:23:56.125Z,36.35
2018-07-04T09:25:49.077Z,36.06
2018-07-04T09:26:49.083Z,36.25
2018-07-04T09:28:42.031Z,36.27
2018-07-04T09:29:42.041Z,36.65
2018-07-04T09:31:34.969Z,35.67
2018-07-04T09:32:35.033Z,35.67
2018-07-04T09:34:27.951Z,35.96
2018-07-04T09:35:27.960Z,35.96
2018-07-04T09:37:20.890Z,35.96
2018-07-04T09:38:20.958Z,36.16
2018-07-04T09:40:13.870Z,36.66
2018-07-04T09:41:13.876Z,35.69
2018-07-04T09:43:06.805Z,35.41
2018-07-04T09:44:06.834Z,35.61
2018-07-04T09:45:59.788Z,34.75
2018-07-04T09:46:59.794Z,34.06
2018-07-04T09:48:52.747Z,34.84
2018-07-04T09:49:52.764Z,34.75
2018-07-04T09:51:45.691Z,34.53
2018-07-04T09:52:45.715Z,34.53
2018-07-04T09:54:38.661Z,35.02
2018-07-04T09:55:38.671Z,35.71
2018-07-04T09:57:31.598Z,34.63
2018-07-04T09:58:31.626Z,34.44
2018-07-04T10:00:24.577Z,34.14
2018-07-04T10:01:24.601Z,34.24
2018-07-04T10:03:17.513Z,33.38
2018-07-04T10:04:17.544Z,33.38
2018-07-04T10:06:10.498Z,33.36
2018-07-04T10:07:10.505Z,33.17
2018-07-04T10:09:03.432Z,33.36
2018-07-04T10:10:03.461Z,32.87
2018-07-04T10:11:56.409Z,33.46
2018-07-04T10:12:56.421Z,33.15
2018-07-04T10:14:49.364Z,33.83
2018-07-04T10:15:49.375Z,32.96
2018-07-04T10:17:42.304Z,32.87
2018-07-04T10:18:42.339Z,31.59
2018-07-04T10:20:35.287Z,32.37
2018-07-04T10:21:35.294Z,31.70
2018-07-04T10:23:28.388Z,31.31
2018-07-04T10:24:28.426Z,30.93
2018-07-04T10:26:21.367Z,30.54
2018-07-04T10:27:21.380Z,29.95
2018-07-04T10:29:14.303Z,30.44
2018-07-04T10:30:14.335Z,30.63
2018-07-04T10:32:07.290Z,29.56
2018-07-04T10:33:07.297Z,29.95
2018-07-04T10:35:00.248Z,29.36
2018-07-04T10:36:00.253Z,28.97
2018-07-04T10:37:53.186Z,28.01
2018-07-04T10:38:53.212Z,27.64
2018-07-04T10:40:46.161Z,27.25
2018-07-04T10:41:46.169Z,27.44
2018-07-04T10:43:39.098Z,27.34
2018-07-04T10:44:39.130Z,27.64
2018-07-04T10:46:32.102Z,27.16
2018-07-04T10:47:32.122Z,26.76
2018-07-04T10:49:25.019Z,27.36
2018-07-04T10:50:25.045Z,27.65
2018-07-04T10:52:17.997Z,27.45
2018-07-04T10:53:18.007Z,27.36
2018-07-04T10:55:10.961Z,27.16
2018-07-04T10:56:10.968Z,26.87
2018-07-04T10:58:03.898Z,26.57
2018-07-04T10:59:03.929Z,26.49
2018-07-04T11:00:57.030Z,26.59
2018-07-04T11:01:57.042Z,26.88
2018-07-04T11:03:49.983Z,27.08
2018-07-04T11:04:50.004Z,27.08
2018-07-04T11:06:42.957Z,26.20
2018-07-04T11:07:43.015Z,25.90
2018-07-04T11:09:35.892Z,26.10
2018-07-04T11:10:35.925Z,25.32
2018-07-04T11:12:28.878Z,26.29
2018-07-04T11:13:28.886Z,26.49
2018-07-04T11:15:21.837Z,26.29
2018-07-04T11:16:21.846Z,25.22
2018-07-04T11:18:14.774Z,25.33
2018-07-04T11:19:14.805Z,25.13
2018-07-04T11:21:07.761Z,24.44
2018-07-04T11:22:07.767Z,25.13
2018-07-04T11:24:00.692Z,24.84
2018-07-04T11:25:00.726Z,25.04
2018-07-04T11:26:53.676Z,24.44
2018-07-04T11:27:53.685Z,24.54
2018-07-04T11:29:46.616Z,24.15
2018-07-04T11:30:46.645Z,25.23
2018-07-04T11:32:39.595Z,25.04
2018-07-04T11:33:39.606Z,25.15
2018-07-04T11:35:32.778Z,25.15
2018-07-04T11:36:32.790Z,24.96
2018-07-04T11:38:25.738Z,23.39
2018-07-04T11:39:25.749Z,23.30
2018-07-04T11:41:18.701Z,23.28
2018-07-04T11:42:18.708Z,23.19
2018-07-04T11:44:11.638Z,23.30
2018-07-04T11:45:11.670Z,22.61
2018-07-04T11:47:04.627Z,22.31
2018-07-04T11:48:04.636Z,22.81
2018-07-04T11:49:57.568Z,22.83
2018-07-04T11:50:58.136Z,22.35
2018-07-04T11:52:50.548Z,20.67
2018-07-04T11:53:50.559Z,20.77
2018-07-04T11:55:43.515Z,21.26
2018-07-04T11:56:43.525Z,21.56
2018-07-04T11:58:36.457Z,22.35
2018-07-04T11:59:36.487Z,21.19
2018-07-04T12:01:29.445Z,20.79
2018-07-04T12:02:29.449Z,20.90
2018-07-04T12:04:22.380Z,20.21
2018-07-04T12:05:22.419Z,20.32
2018-07-04T12:07:15.582Z,20.12
2018-07-04T12:08:15.593Z,19.34
2018-07-04T12:10:08.527Z,19.93
2018-07-04T12:11:08.558Z,19.83
2018-07-04T12:13:01.518Z,20.12
2018-07-04T12:14:01.527Z,20.03
2018-07-04T12:15:54.465Z,20.14
2018-07-04T12:16:54.495Z,20.14
2018-07-04T12:18:48.452Z,19.56
2018-07-04T12:19:48.459Z,19.36
2018-07-04T12:21:41.444Z,17.48
2018-07-04T12:22:41.444Z,17.88
2018-07-04T12:24:34.375Z,18.48
2018-07-04T12:25:34.407Z,17.39
2018-07-04T12:27:27.365Z,17.29
2018-07-04T12:28:27.374Z,15.81
2018-07-04T12:30:21.300Z,16.78
2018-07-04T12:31:21.335Z,16.98
2018-07-04T12:33:14.292Z,17.18
2018-07-04T12:34:14.303Z,17.28
2018-07-04T12:36:07.235Z,16.88
2018-07-04T12:37:07.268Z,17.36
2018-07-04T12:39:00.218Z,17.46
2018-07-04T12:40:00.232Z,18.15
2018-07-04T12:41:53.189Z,18.54
2018-07-04T12:42:53.200Z,19.62
2018-07-04T12:44:46.156Z,20.79
2018-07-04T12:45:46.166Z,20.99
2018-07-04T12:47:39.123Z,20.39
2018-07-04T12:48:39.134Z,21.09
2018-07-04T12:50:32.069Z,21.67
2018-07-04T12:51:32.098Z,21.48
2018-07-04T12:53:25.055Z,20.30
2018-07-04T12:54:25.120Z,20.01
2018-07-04T12:56:18.000Z,20.40
2018-07-04T12:57:18.050Z,20.40
2018-07-04T12:59:10.985Z,20.01
2018-07-04T13:00:10.993Z,20.51
2018-07-04T13:02:03.925Z,20.80
2018-07-04T13:03:03.965Z,21.29
2018-07-04T13:04:56.914Z,20.22
2018-07-04T13:05:56.923Z,20.51
2018-07-04T13:07:49.880Z,20.51
2018-07-04T13:08:49.890Z,20.41
2018-07-04T13:10:42.847Z,20.01
2018-07-04T13:11:42.868Z,20.31
2018-07-04T13:13:35.977Z,19.62
2018-07-04T13:14:35.990Z,20.20
2018-07-04T13:16:28.923Z,20.98
2018-07-04T13:17:28.959Z,20.98
2018-07-04T13:19:21.927Z,21.56
2018-07-04T13:20:21.920Z,21.66
2018-07-04T13:22:14.854Z,22.05
2018-07-04T13:23:14.898Z,21.94
2018-07-04T13:25:07.998Z,21.84
2018-07-04T13:26:08.012Z,21.84
2018-07-04T13:28:00.949Z,22.72
2018-07-04T13:29:00.975Z,22.71
2018-07-04T13:30:53.929Z,22.91
2018-07-04T13:31:53.942Z,23.41
2018-07-04T13:33:46.897Z,22.92
2018-07-04T13:34:46.904Z,23.02
2018-07-04T13:36:39.837Z,22.44
2018-07-04T13:37:39.868Z,22.24
2018-07-04T13:39:32.824Z,23.12
2018-07-04T13:40:32.838Z,23.41
2018-07-04T13:42:25.767Z,23.59
2018-07-04T13:43:25.893Z,23.59
2018-07-04T13:45:18.754Z,24.87
2018-07-04T13:46:18.846Z,23.21
2018-07-04T13:48:11.751Z,24.09
2018-07-04T13:49:11.743Z,23.50
2018-07-04T13:51:04.745Z,23.32
2018-07-04T13:52:04.717Z,23.02
2018-07-04T13:53:57.743Z,23.02
2018-07-04T13:54:57.669Z,23.22
2018-07-04T13:56:50.636Z,23.03
2018-07-04T13:57:50.667Z,24.02
2018-07-04T13:59:43.627Z,22.36
2018-07-04T14:00:43.636Z,22.46
2018-07-04T14:02:36.596Z,21.76
2018-07-04T14:03:36.626Z,21.77
2018-07-04T14:05:29.601Z,22.16
2018-07-04T14:06:29.574Z,22.75
2018-07-04T14:08:22.484Z,23.63
2018-07-04T14:09:22.477Z,23.06
2018-07-04T14:11:15.430Z,22.86
2018-07-04T14:12:15.440Z,22.67
2018-07-04T14:14:08.424Z,22.75
2018-07-04T14:15:08.444Z,23.03
2018-07-04T14:17:01.394Z,24.01
2018-07-04T14:18:01.428Z,23.92
2018-07-04T14:19:54.348Z,24.11
2018-07-04T14:20:54.351Z,23.83
2018-07-04T14:22:47.312Z,23.23
2018-07-04T14:23:47.337Z,23.82
2018-07-04T14:25:40.345Z,24.21
2018-07-04T14:26:40.271Z,24.90
2018-07-04T14:28:33.232Z,24.70
2018-07-04T14:29:33.233Z,24.90
2018-07-04T14:31:26.300Z,25.21
2018-07-04T14:32:26.232Z,25.01
2018-07-04T14:34:19.129Z,23.84
2018-07-04T14:35:19.179Z,23.85
2018-07-04T14:37:12.189Z,22.88
2018-07-04T14:38:12.143Z,22.30
2018-07-04T14:40:05.195Z,21.80
2018-07-04T14:41:05.157Z,22.49
2018-07-04T14:42:58.088Z,22.20
2018-07-04T14:43:58.075Z,22.20
2018-07-04T14:45:51.031Z,22.39
2018-07-04T14:46:51.029Z,23.08
2018-07-04T14:48:43.967Z,23.36
2018-07-04T14:49:43.999Z,23.46
2018-07-04T14:51:36.957Z,24.53
2018-07-04T14:52:36.966Z,24.84
2018-07-04T14:54:29.905Z,23.84
2018-07-04T14:55:29.936Z,24.43
2018-07-04T14:57:22.894Z,25.03
2018-07-04T14:58:22.904Z,25.03
2018-07-04T15:00:15.859Z,24.84
2018-07-04T15:01:15.868Z,24.84
2018-07-04T15:03:08.817Z,25.03
2018-07-04T15:04:08.883Z,24.55
2018-07-04T15:06:01.810Z,25.04
2018-07-04T15:07:01.820Z,24.95
2018-07-04T15:08:54.756Z,24.85
2018-07-04T15:09:54.799Z,24.95
2018-07-04T15:11:47.747Z,24.96
2018-07-04T15:12:47.760Z,24.76
2018-07-04T15:14:40.929Z,24.27
2018-07-04T15:15:40.817Z,24.17
2018-07-04T15:17:33.686Z,23.88
2018-07-04T15:18:33.694Z,24.57
2018-07-04T15:20:26.646Z,24.57
2018-07-04T15:21:26.661Z,24.86
2018-07-04T15:23:20.155Z,23.68
2018-07-04T15:24:20.205Z,24.86
2018-07-04T15:26:13.163Z,25.34
2018-07-04T15:27:13.144Z,25.44
2018-07-04T15:29:06.139Z,25.24
2018-07-04T15:30:06.144Z,24.65
2018-07-04T15:31:59.100Z,24.44
2018-07-04T15:32:59.111Z,24.74
2018-07-04T15:34:52.050Z,24.74
2018-07-04T15:35:52.086Z,24.05
2018-07-04T15:37:45.044Z,24.92
2018-07-04T15:38:45.062Z,24.53
2018-07-04T15:40:39.093Z,25.02
2018-07-04T15:41:39.048Z,24.92
2018-07-04T15:43:32.009Z,25.12
2018-07-04T15:44:32.021Z,24.92
2018-07-04T15:46:24.972Z,24.63
2018-07-04T15:47:24.983Z,24.64
2018-07-04T15:49:17.918Z,25.12
2018-07-04T15:50:17.955Z,24.63
2018-07-04T15:52:10.932Z,24.53
2018-07-04T15:53:10.930Z,24.63
2018-07-04T15:55:03.867Z,24.63
2018-07-04T15:56:03.900Z,24.53
2018-07-04T15:57:56.915Z,24.32
2018-07-04T15:58:56.894Z,24.70
2018-07-04T16:00:49.801Z,25.31
2018-07-04T16:01:49.832Z,25.29
2018-07-04T16:03:42.785Z,24.99
2018-07-04T16:04:42.799Z,25.39
2018-07-04T16:06:35.761Z,25.28
2018-07-04T16:07:35.766Z,25.38
2018-07-04T16:09:28.700Z,25.28
2018-07-04T16:10:28.734Z,25.38
2018-07-04T16:12:21.688Z,25.28
2018-07-04T16:13:21.703Z,25.87
2018-07-04T16:15:14.632Z,26.35
2018-07-04T16:16:14.665Z,26.35
2018-07-04T16:18:07.622Z,26.37
2018-07-04T16:19:07.629Z,26.35
2018-07-04T16:21:00.571Z,26.35
2018-07-04T16:22:00.596Z,26.35
2018-07-04T16:23:53.553Z,26.95
2018-07-04T16:24:53.559Z,27.44
2018-07-04T16:26:46.492Z,26.55
2018-07-04T16:27:46.525Z,27.53
2018-07-04T16:29:39.480Z,27.42
2018-07-04T16:30:39.489Z,27.63
2018-07-04T16:32:32.438Z,27.72
2018-07-04T16:33:32.452Z,27.53
2018-07-04T16:35:25.385Z,27.42
2018-07-04T16:36:25.416Z,27.62
2018-07-04T16:38:18.372Z,28.01
2018-07-04T16:39:18.384Z,28.11
2018-07-04T16:41:11.316Z,27.72
2018-07-04T16:42:11.347Z,28.11
2018-07-04T16:44:04.303Z,28.50
2018-07-04T16:45:04.316Z,28.69
2018-07-04T16:46:57.245Z,28.40
2018-07-04T16:47:57.282Z,28.11
2018-07-04T16:49:50.228Z,28.50
2018-07-04T16:50:50.238Z,28.99
2018-07-04T16:52:43.172Z,28.30
2018-07-04T16:53:43.203Z,28.50
2018-07-04T16:55:36.159Z,28.89
2018-07-04T16:56:36.170Z,28.99
2018-07-04T16:58:29.126Z,28.30
2018-07-04T16:59:29.130Z,28.50
2018-07-04T17:01:22.063Z,27.81
2018-07-04T17:02:22.095Z,28.30
2018-07-04T17:04:15.054Z,29.08
2018-07-04T17:05:15.064Z,28.79
2018-07-04T17:07:07.990Z,28.40
2018-07-04T17:08:08.023Z,28.22
2018-07-04T17:10:01.004Z,27.83
2018-07-04T17:11:00.996Z,28.22
2018-07-04T17:12:54.466Z,27.92
2018-07-04T17:13:54.455Z,28.02
2018-07-04T17:15:47.614Z,28.12
2018-07-04T17:16:47.656Z,28.51
2018-07-04T17:18:40.579Z,28.23
2018-07-04T17:19:40.588Z,28.13
2018-07-04T17:21:33.519Z,28.53
2018-07-04T17:22:33.552Z,28.23
2018-07-04T17:24:26.501Z,27.55
2018-07-04T17:25:29.795Z,27.74
2018-07-04T17:27:19.449Z,28.15
2018-07-04T17:28:19.484Z,27.75
2018-07-04T17:30:12.440Z,28.05
2018-07-04T17:31:12.447Z,28.44
2018-07-04T17:33:05.388Z,27.66
2018-07-04T17:34:05.421Z,27.66
2018-07-04T17:35:58.771Z,28.54
2018-07-04T17:36:58.714Z,28.83
2018-07-04T17:38:51.678Z,29.05
2018-07-04T17:39:51.677Z,28.65
2018-07-04T17:41:44.611Z,28.85
2018-07-04T17:42:44.643Z,29.53
2018-07-04T17:44:37.634Z,28.67
2018-07-04T17:45:37.608Z,27.88
2018-07-04T17:47:30.542Z,28.09
2018-07-04T17:48:30.573Z,27.99
2018-07-04T17:50:23.533Z,28.30
2018-07-04T17:51:23.545Z,26.73
2018-07-04T17:53:16.703Z,26.74
2018-07-04T17:54:16.736Z,28.02
2018-07-04T17:56:09.693Z,26.56
2018-07-04T17:57:09.707Z,26.75
2018-07-04T17:59:02.639Z,25.57
2018-07-04T18:00:02.695Z,25.08
2018-07-04T18:01:55.794Z,26.07
2018-07-04T18:02:55.804Z,25.49
2018-07-04T18:04:48.762Z,24.69
2018-07-04T18:05:48.776Z,24.00
2018-07-04T18:07:42.206Z,25.65
2018-07-04T18:08:42.240Z,25.35
2018-07-04T18:10:35.198Z,26.41
2018-07-04T18:11:35.210Z,26.40
2018-07-04T18:13:28.147Z,26.78
2018-07-04T18:14:28.174Z,26.68
2018-07-04T18:16:21.132Z,26.97
2018-07-04T18:17:21.143Z,27.46
2018-07-04T18:19:14.075Z,27.46
2018-07-04T18:20:14.106Z,27.17
2018-07-04T18:22:07.079Z,27.85
2018-07-04T18:23:07.102Z,27.75
2018-07-04T18:25:00.028Z,27.67
2018-07-04T18:26:00.056Z,27.75
2018-07-04T18:27:53.012Z,28.83
2018-07-04T18:28:53.048Z,29.03
2018-07-04T18:30:46.035Z,27.95
2018-07-04T18:31:46.199Z,27.95
2018-07-04T18:33:39.464Z,28.43